createdAt,value
2022-11-23T00:02:31.017Z,8.60
2022-11-23T00:05:17.755Z,8.60
2022-11-23T00:08:06.488Z,8.60
2022-11-23T00:10:53.073Z,8.60
2022-11-23T00:13:42.571Z,8.60
2022-11-23T00:16:31.426Z,8.60
2022-11-23T00:19:17.838Z,8.60
2022-11-23T00:22:04.265Z,8.70
2022-11-23T00:24:52.352Z,8.70
2022-11-23T00:27:38.979Z,8.60
2022-11-23T00:30:25.377Z,8.60
2022-11-23T00:33:11.897Z,8.60
2022-11-23T00:36:02.528Z,8.60
2022-11-23T00:38:50.143Z,8.60
2022-11-23T00:41:38.122Z,8.60
2022-11-23T00:44:24.651Z,8.70
2022-11-23T00:47:11.084Z,8.60
2022-11-23T00:49:57.676Z,8.70
2022-11-23T00:52:44.149Z,8.60
2022-11-23T00:55:30.579Z,8.60
2022-11-23T00:58:18.366Z,8.60
2022-11-23T01:01:08.180Z,8.60
2022-11-23T01:03:57.292Z,8.60
2022-11-23T01:06:44.052Z,8.60
2022-11-23T01:09:30.658Z,8.60
2022-11-23T01:12:17.494Z,8.60
2022-11-23T01:15:05.945Z,8.70
2022-11-23T01:17:52.950Z,8.70
2022-11-23T01:20:39.849Z,8.70
2022-11-23T01:23:26.562Z,8.70
2022-11-23T01:26:13.302Z,8.70
2022-11-23T01:29:00.086Z,8.70
2022-11-23T01:31:47.954Z,8.80
2022-11-23T01:34:34.880Z,8.80
2022-11-23T01:37:21.558Z,8.80
2022-11-23T01:40:09.609Z,8.80
2022-11-23T01:42:58.430Z,8.80
2022-11-23T01:45:56.701Z,8.80
2022-11-23T01:48:48.255Z,8.80
2022-11-23T01:51:38.274Z,8.80
2022-11-23T01:54:29.409Z,8.80
2022-11-23T01:57:22.122Z,8.80
2022-11-23T02:00:10.176Z,8.80
2022-11-23T02:03:01.375Z,8.80
2022-11-23T02:05:54.350Z,8.80
2022-11-23T02:08:41.660Z,8.80
2022-11-23T02:11:28.212Z,8.80
2022-11-23T02:14:19.068Z,8.90
2022-11-23T02:17:09.863Z,8.90
2022-11-23T02:20:03.233Z,8.90
2022-11-23T02:23:02.699Z,8.90
2022-11-23T02:25:58.572Z,8.80
2022-11-23T02:28:49.465Z,8.90
2022-11-23T02:31:36.130Z,8.80
2022-11-23T02:34:22.832Z,8.80
2022-11-23T02:37:10.351Z,8.90
2022-11-23T02:39:59.615Z,8.80
2022-11-23T02:42:49.595Z,8.80
2022-11-23T02:45:38.890Z,8.80
2022-11-23T02:48:25.516Z,8.70
2022-11-23T02:51:12.271Z,8.70
2022-11-23T02:53:58.778Z,8.80
2022-11-23T02:56:45.243Z,8.80
2022-11-23T02:59:34.246Z,8.80
2022-11-23T03:02:21.360Z,8.80
2022-11-23T03:05:08.893Z,8.70
2022-11-23T03:07:55.703Z,8.70
2022-11-23T03:10:42.395Z,8.80
2022-11-23T03:13:28.825Z,8.80
2022-11-23T03:16:17.486Z,8.70
2022-11-23T03:19:03.989Z,8.80
2022-11-23T03:21:50.443Z,8.80
2022-11-23T03:24:36.877Z,8.80
2022-11-23T03:27:23.504Z,8.80
2022-11-23T03:30:11.046Z,8.80
2022-11-23T03:32:58.971Z,8.90
2022-11-23T03:35:46.044Z,8.80
2022-11-23T03:38:32.646Z,8.80
2022-11-23T03:41:18.945Z,8.80
2022-11-23T03:44:05.719Z,8.80
2022-11-23T03:46:52.274Z,8.80
2022-11-23T03:49:40.152Z,8.80
2022-11-23T03:52:27.090Z,8.80
2022-11-23T03:55:13.859Z,8.80
2022-11-23T03:58:00.559Z,8.80
2022-11-23T04:00:47.225Z,8.90
2022-11-23T04:03:33.669Z,8.90
2022-11-23T04:06:21.554Z,8.90
2022-11-23T04:09:08.281Z,8.90
2022-11-23T04:11:54.822Z,8.90
2022-11-23T04:14:41.237Z,8.90
2022-11-23T04:17:27.725Z,8.90
2022-11-23T04:20:15.073Z,8.90
2022-11-23T04:23:02.944Z,8.90
2022-11-23T04:25:49.623Z,8.90
2022-11-23T04:28:36.258Z,8.90
2022-11-23T04:31:22.766Z,8.90
2022-11-23T04:34:09.354Z,8.90
2022-11-23T04:36:56.088Z,9.00
2022-11-23T04:39:43.809Z,8.90
2022-11-23T04:42:30.553Z,8.90
2022-11-23T04:45:17.652Z,8.90
2022-11-23T04:48:04.242Z,8.90
2022-11-23T04:50:54.317Z,8.90
2022-11-23T04:53:42.057Z,8.90
2022-11-23T04:56:29.978Z,8.90
2022-11-23T04:59:17.172Z,8.80
2022-11-23T05:02:03.993Z,8.80
2022-11-23T05:04:50.372Z,8.90
2022-11-23T05:07:37.027Z,8.90
2022-11-23T05:10:23.928Z,8.80
2022-11-23T05:13:11.808Z,8.80
2022-11-23T05:15:58.630Z,8.80
2022-11-23T05:18:45.290Z,8.90
2022-11-23T05:21:31.726Z,8.80
2022-11-23T05:24:18.199Z,8.80
2022-11-23T05:27:04.763Z,8.80
2022-11-23T05:29:52.879Z,8.80
2022-11-23T05:32:39.615Z,8.70
2022-11-23T05:35:26.010Z,8.70
2022-11-23T05:38:12.634Z,8.60
2022-11-23T05:40:59.465Z,8.60
2022-11-23T05:43:46.015Z,8.60
2022-11-23T05:46:33.906Z,8.60
2022-11-23T05:49:20.564Z,8.60
2022-11-23T05:52:07.172Z,8.50
2022-11-23T05:54:53.808Z,8.50
2022-11-23T05:57:40.218Z,8.50
2022-11-23T06:00:26.797Z,8.40
2022-11-23T06:03:14.735Z,8.50
2022-11-23T06:06:01.295Z,8.40
2022-11-23T06:08:49.246Z,8.40
2022-11-23T06:11:36.360Z,8.40
2022-11-23T06:14:23.344Z,8.40
2022-11-23T06:17:10.071Z,8.40
2022-11-23T06:19:57.880Z,8.30
2022-11-23T06:22:44.577Z,8.30
2022-11-23T06:25:31.069Z,8.30
2022-11-23T06:28:17.511Z,8.30
2022-11-23T06:31:05.557Z,8.30
2022-11-23T06:33:53.952Z,8.30
2022-11-23T06:36:43.129Z,8.30
2022-11-23T06:39:30.069Z,8.20
2022-11-23T06:42:37.901Z,8.20
2022-11-23T06:45:23.353Z,8.20
2022-11-23T06:48:09.837Z,8.30
2022-11-23T06:50:56.287Z,8.20
2022-11-23T06:53:44.080Z,8.20
2022-11-23T06:56:32.574Z,8.20
2022-11-23T06:59:19.456Z,8.20
2022-11-23T07:02:06.351Z,8.20
2022-11-23T07:04:53.193Z,8.20
2022-11-23T07:07:39.958Z,8.10
2022-11-23T07:10:28.289Z,8.20
2022-11-23T07:13:15.443Z,8.20
2022-11-23T07:16:02.211Z,8.20
2022-11-23T07:18:48.654Z,8.20
2022-11-23T07:21:35.092Z,8.20
2022-11-23T07:24:21.645Z,8.30
2022-11-23T07:27:09.650Z,8.30
2022-11-23T07:29:56.244Z,8.30
2022-11-23T07:32:42.722Z,8.30
2022-11-23T07:35:29.373Z,8.40
2022-11-23T07:38:16.356Z,8.40
2022-11-23T07:41:03.933Z,8.40
2022-11-23T07:43:53.111Z,8.40
2022-11-23T07:46:39.882Z,8.50
2022-11-23T07:49:26.373Z,8.50
2022-11-23T07:52:12.980Z,8.50
2022-11-23T07:55:00.292Z,8.60
2022-11-23T07:57:46.778Z,8.60
2022-11-23T08:00:34.818Z,8.60
2022-11-23T08:03:30.117Z,8.70
2022-11-23T08:06:17.878Z,8.70
2022-11-23T08:09:04.627Z,8.70
2022-11-23T08:11:51.488Z,8.70
2022-11-23T08:14:38.112Z,8.70
2022-11-23T08:17:25.962Z,8.80
2022-11-23T08:20:13.437Z,8.80
2022-11-23T08:23:00.326Z,8.80
2022-11-23T08:25:47.259Z,8.90
2022-11-23T08:28:33.691Z,8.90
2022-11-23T08:31:20.410Z,8.90
2022-11-23T08:34:08.212Z,8.90
2022-11-23T08:36:54.777Z,9.00
2022-11-23T08:39:41.191Z,8.90
2022-11-23T08:42:27.700Z,9.00
2022-11-23T08:45:14.129Z,9.00
2022-11-23T08:48:00.985Z,9.00
2022-11-23T08:50:49.493Z,9.10
2022-11-23T08:53:36.442Z,9.10
2022-11-23T08:56:23.179Z,9.10
2022-11-23T08:59:10.049Z,9.10
2022-11-23T09:01:56.864Z,9.10
2022-11-23T09:04:43.916Z,9.20
2022-11-23T09:07:33.505Z,9.20
2022-11-23T09:10:20.506Z,9.40
2022-11-23T09:13:06.912Z,9.50
2022-11-23T09:15:53.354Z,9.60
2022-11-23T09:18:39.787Z,9.70
2022-11-23T09:21:29.476Z,9.70
2022-11-23T09:24:17.598Z,9.70
2022-11-23T09:27:04.155Z,9.70
2022-11-23T09:29:50.819Z,9.80
2022-11-23T09:32:37.236Z,9.90
2022-11-23T09:35:23.885Z,10.20
2022-11-23T09:38:10.295Z,10.40
2022-11-23T09:41:09.105Z,10.40
2022-11-23T09:44:03.578Z,10.30
2022-11-23T09:47:07.489Z,10.30
2022-11-23T09:50:04.138Z,10.30
2022-11-23T09:52:52.052Z,10.30
2022-11-23T09:55:43.362Z,10.20
2022-11-23T09:58:37.596Z,10.20
2022-11-23T10:01:25.311Z,10.20
2022-11-23T10:04:18.836Z,10.20
2022-11-23T10:07:21.190Z,10.20
2022-11-23T10:10:19.122Z,10.10
2022-11-23T10:13:24.909Z,10.20
2022-11-23T10:16:23.687Z,10.20
2022-11-23T10:19:21.221Z,10.10
2022-11-23T10:22:13.802Z,10.20
2022-11-23T10:25:03.123Z,10.20
2022-11-23T10:27:53.093Z,10.30
2022-11-23T10:30:40.556Z,10.30
2022-11-23T10:33:38.963Z,10.40
2022-11-23T10:36:25.735Z,10.50
2022-11-23T10:39:21.131Z,10.70
2022-11-23T10:42:19.578Z,10.80
2022-11-23T10:45:07.643Z,10.80
2022-11-23T10:47:58.803Z,10.70
2022-11-23T10:50:47.519Z,10.70
2022-11-23T10:53:34.839Z,10.70
2022-11-23T10:56:21.839Z,10.60
2022-11-23T10:59:31.403Z,10.60
2022-11-23T11:02:22.479Z,10.60
2022-11-23T11:05:46.298Z,10.60
2022-11-23T11:08:35.559Z,10.90
2022-11-23T11:11:27.782Z,11.10
2022-11-23T11:14:16.924Z,11.20
2022-11-23T11:17:03.682Z,11.20
2022-11-23T11:19:50.197Z,11.40
2022-11-23T11:22:37.747Z,11.50
2022-11-23T11:25:32.685Z,11.50
2022-11-23T11:28:28.081Z,11.50
2022-11-23T11:31:33.846Z,11.50
2022-11-23T11:34:27.482Z,11.50
2022-11-23T11:37:22.669Z,11.70
2022-11-23T11:40:17.610Z,11.70
2022-11-23T11:43:12.832Z,11.70
2022-11-23T11:49:13.810Z,11.70
2022-11-23T11:52:05.967Z,11.70
2022-11-23T11:54:57.862Z,11.70
2022-11-23T11:57:49.985Z,11.80
2022-11-23T12:00:44.852Z,11.80
2022-11-23T12:03:43.032Z,11.90
2022-11-23T12:06:36.742Z,11.90
2022-11-23T12:09:29.351Z,11.90
2022-11-23T12:12:18.657Z,11.90
2022-11-23T12:15:26.344Z,11.90
2022-11-23T12:18:41.635Z,11.80
2022-11-23T12:21:56.179Z,11.90
2022-11-23T12:24:59.035Z,12.00
2022-11-23T12:28:06.681Z,12.00
2022-11-23T12:31:04.007Z,12.00
2022-11-23T12:34:22.184Z,11.90
2022-11-23T12:37:29.392Z,11.80
2022-11-23T12:40:33.887Z,11.80
2022-11-23T12:43:25.532Z,11.80
2022-11-23T12:46:19.239Z,11.80
2022-11-23T12:49:19.252Z,11.80
2022-11-23T12:52:27.267Z,11.80
2022-11-23T12:55:22.989Z,11.80
2022-11-23T12:58:17.917Z,11.80
2022-11-23T13:01:08.766Z,11.80
2022-11-23T13:04:23.464Z,11.90
2022-11-23T13:07:49.085Z,11.80
2022-11-23T13:10:54.730Z,11.90
2022-11-23T13:13:59.285Z,11.90
2022-11-23T13:17:03.021Z,11.90
2022-11-23T13:20:07.920Z,11.80
2022-11-23T13:22:57.459Z,11.70
2022-11-23T13:25:44.008Z,11.50
2022-11-23T13:28:31.715Z,11.50
2022-11-23T13:31:28.028Z,11.40
2022-11-23T13:34:47.329Z,11.50
2022-11-23T13:38:15.137Z,11.50
2022-11-23T13:41:01.966Z,11.60
2022-11-23T13:43:48.695Z,11.60
2022-11-23T13:46:36.914Z,11.50
2022-11-23T13:49:32.530Z,11.40
2022-11-23T13:52:31.747Z,11.30
2022-11-23T13:55:30.304Z,11.20
2022-11-23T13:58:40.021Z,11.20
2022-11-23T14:01:59.996Z,11.20
2022-11-23T14:04:48.297Z,11.10
2022-11-23T14:07:43.331Z,11.00
2022-11-23T14:10:33.339Z,11.00
2022-11-23T14:13:24.532Z,11.00
2022-11-23T14:16:14.450Z,11.00
2022-11-23T14:19:10.125Z,10.90
2022-11-23T14:22:04.766Z,10.90
2022-11-23T14:25:16.824Z,10.90
2022-11-23T14:28:19.128Z,10.80
2022-11-23T14:31:17.391Z,10.80
2022-11-23T14:34:11.931Z,10.80
2022-11-23T14:37:05.939Z,10.70
2022-11-23T14:40:24.668Z,10.60
2022-11-23T14:43:19.023Z,10.60
2022-11-23T14:46:07.600Z,10.60
2022-11-23T14:49:03.554Z,10.50
2022-11-23T14:51:51.139Z,10.40
2022-11-23T14:54:39.808Z,10.40
2022-11-23T14:57:30.602Z,10.40
2022-11-23T15:00:32.025Z,10.30
2022-11-23T15:03:49.215Z,10.30
2022-11-23T15:06:31.766Z,10.30
2022-11-23T15:09:32.770Z,10.20
2022-11-23T15:12:23.719Z,10.10
2022-11-23T15:15:20.153Z,10.20
2022-11-23T15:18:08.241Z,10.20
2022-11-23T15:20:55.120Z,10.10
2022-11-23T15:23:45.867Z,10.10
2022-11-23T15:26:49.492Z,10.00
2022-11-23T15:29:39.083Z,10.00
2022-11-23T15:32:31.252Z,9.90
2022-11-23T15:35:22.362Z,9.90
2022-11-23T15:38:14.329Z,9.90
2022-11-23T15:41:05.211Z,9.80
2022-11-23T15:43:56.784Z,9.80
2022-11-23T15:46:43.941Z,9.70
2022-11-23T15:49:31.238Z,9.70
2022-11-23T15:52:21.245Z,9.60
2022-11-23T15:55:10.472Z,9.70
2022-11-23T15:57:58.969Z,9.60
2022-11-23T16:00:50.470Z,9.50
2022-11-23T16:03:43.126Z,9.50
2022-11-23T16:06:38.724Z,9.50
2022-11-23T16:09:54.571Z,9.40
2022-11-23T16:12:49.810Z,9.40
2022-11-23T16:15:45.237Z,9.30
2022-11-23T16:18:32.942Z,9.30
2022-11-23T16:21:21.596Z,9.30
2022-11-23T16:24:19.976Z,9.30
2022-11-23T16:27:15.850Z,9.30
2022-11-23T16:30:04.746Z,9.20
2022-11-23T16:32:51.516Z,9.20
2022-11-23T16:35:38.160Z,9.10
2022-11-23T16:38:25.417Z,9.10
2022-11-23T16:41:11.830Z,9.10
2022-11-23T16:43:59.736Z,9.10
2022-11-23T16:46:47.454Z,9.00
2022-11-23T16:49:34.680Z,9.00
2022-11-23T16:52:22.742Z,9.00
2022-11-23T16:55:09.891Z,9.00
2022-11-23T16:57:56.463Z,9.00
2022-11-23T17:00:45.137Z,9.00
2022-11-23T17:03:33.878Z,9.00
2022-11-23T17:06:23.297Z,9.00
2022-11-23T17:09:12.191Z,9.00
2022-11-23T17:11:59.059Z,8.90
2022-11-23T17:14:48.395Z,8.90
2022-11-23T17:17:36.390Z,8.80
2022-11-23T17:20:23.726Z,8.90
2022-11-23T17:23:10.387Z,8.80
2022-11-23T17:25:57.130Z,8.80
2022-11-23T17:28:43.956Z,8.80
2022-11-23T17:31:30.595Z,8.70
2022-11-23T17:34:19.086Z,8.70
2022-11-23T17:37:06.159Z,8.70
2022-11-23T17:39:52.659Z,8.60
2022-11-23T17:42:39.359Z,8.60
2022-11-23T17:45:25.811Z,8.60
2022-11-23T17:48:13.462Z,8.60
2022-11-23T17:51:01.364Z,8.60
2022-11-23T17:53:48.475Z,8.60
2022-11-23T17:56:35.180Z,8.60
2022-11-23T17:59:21.972Z,8.60
2022-11-23T18:02:09.897Z,8.70
2022-11-23T18:04:56.383Z,8.60
2022-11-23T18:07:44.349Z,8.60
2022-11-23T18:10:30.891Z,8.60
2022-11-23T18:13:17.492Z,8.60
2022-11-23T18:16:04.220Z,8.60
2022-11-23T18:18:51.803Z,8.60
2022-11-23T18:21:39.032Z,8.60
2022-11-23T18:24:27.128Z,8.60
2022-11-23T18:27:13.919Z,8.50
2022-11-23T18:30:00.719Z,8.50
2022-11-23T18:32:47.263Z,8.50
2022-11-23T18:35:33.660Z,8.50
2022-11-23T18:38:20.166Z,8.50
2022-11-23T18:41:08.479Z,8.40
2022-11-23T18:43:55.205Z,8.50
2022-11-23T18:46:42.050Z,8.50
2022-11-23T18:49:28.741Z,8.50
2022-11-23T18:52:15.173Z,8.50
2022-11-23T18:55:01.693Z,8.50
2022-11-23T18:57:49.516Z,8.50
2022-11-23T19:00:37.245Z,8.50
2022-11-23T19:03:23.877Z,8.60
2022-11-23T19:06:13.617Z,8.70
2022-11-23T19:09:01.848Z,8.70
2022-11-23T19:11:48.401Z,8.80
2022-11-23T19:14:36.139Z,8.80
2022-11-23T19:17:22.962Z,8.80
2022-11-23T19:20:10.418Z,8.80
2022-11-23T19:22:57.180Z,8.90
2022-11-23T19:25:43.778Z,8.90
2022-11-23T19:28:32.522Z,8.90
2022-11-23T19:31:22.553Z,8.90
2022-11-23T19:34:10.832Z,8.90
2022-11-23T19:36:57.245Z,8.90
2022-11-23T19:39:43.850Z,9.00
2022-11-23T19:42:30.493Z,9.00
2022-11-23T19:45:17.419Z,8.90
2022-11-23T19:48:05.807Z,9.00
2022-11-23T19:50:56.869Z,8.90
2022-11-23T19:53:44.506Z,9.00
2022-11-23T19:56:31.133Z,8.90
2022-11-23T19:59:17.820Z,9.00
2022-11-23T20:02:04.393Z,9.00
2022-11-23T20:04:53.019Z,9.00
2022-11-23T20:07:40.081Z,9.00
2022-11-23T20:10:27.146Z,9.00
2022-11-23T20:13:14.331Z,9.00
2022-11-23T20:16:03.364Z,9.00
2022-11-23T20:18:56.937Z,9.00
2022-11-23T20:21:45.074Z,9.00
2022-11-23T20:24:32.519Z,9.00
2022-11-23T20:27:19.261Z,8.90
2022-11-23T20:30:06.279Z,8.90
2022-11-23T20:32:53.239Z,8.80
2022-11-23T20:35:40.698Z,8.80
2022-11-23T20:38:28.500Z,8.80
2022-11-23T20:41:16.830Z,8.80
2022-11-23T20:44:05.181Z,8.80
2022-11-23T20:47:07.309Z,8.80
2022-11-23T20:49:53.929Z,8.80
2022-11-23T20:52:40.644Z,8.70
2022-11-23T20:55:28.502Z,8.70
2022-11-23T20:58:18.143Z,8.70
2022-11-23T21:01:05.649Z,8.70
2022-11-23T21:03:53.673Z,8.70
2022-11-23T21:06:40.530Z,8.70
2022-11-23T21:09:27.217Z,8.70
2022-11-23T21:12:32.731Z,8.60
2022-11-23T21:15:19.624Z,8.60
2022-11-23T21:18:06.100Z,8.60
2022-11-23T21:20:56.391Z,8.60
2022-11-23T21:23:43.030Z,8.60
2022-11-23T21:26:30.053Z,8.60
2022-11-23T21:29:18.473Z,8.60
2022-11-23T21:32:05.874Z,8.60
2022-11-23T21:34:52.418Z,8.60
2022-11-23T21:37:39.206Z,8.60
2022-11-23T21:40:26.273Z,8.60
2022-11-23T21:43:12.899Z,8.50
2022-11-23T21:46:01.619Z,8.50
2022-11-23T21:48:48.158Z,8.50
2022-11-23T21:51:35.302Z,8.50
2022-11-23T21:54:22.021Z,8.50
2022-11-23T21:57:09.054Z,8.50
2022-11-23T21:59:55.505Z,8.50
2022-11-23T22:02:43.489Z,8.50
2022-11-23T22:05:30.465Z,8.50
2022-11-23T22:08:32.558Z,8.60
2022-11-23T22:11:21.912Z,8.60
2022-11-23T22:14:11.794Z,8.60
2022-11-23T22:16:59.157Z,8.60
2022-11-23T22:19:47.175Z,8.60
2022-11-23T22:22:33.928Z,8.60
2022-11-23T22:25:20.529Z,8.60
2022-11-23T22:28:06.932Z,8.60
2022-11-23T22:30:54.222Z,8.60
2022-11-23T22:33:41.683Z,8.60
2022-11-23T22:36:29.616Z,8.60
2022-11-23T22:39:16.358Z,8.60
2022-11-23T22:42:03.008Z,8.60
2022-11-23T22:44:50.286Z,8.60
2022-11-23T22:47:36.948Z,8.60
2022-11-23T22:50:23.434Z,8.60
2022-11-23T22:53:11.643Z,8.60
2022-11-23T22:56:02.589Z,8.60
2022-11-23T22:58:49.828Z,8.60
2022-11-23T23:01:36.635Z,8.60
2022-11-23T23:04:23.139Z,8.60
2022-11-23T23:07:09.714Z,8.60
2022-11-23T23:09:58.185Z,8.50
2022-11-23T23:12:44.973Z,8.50
2022-11-23T23:15:31.420Z,8.60
2022-11-23T23:18:18.639Z,8.50
2022-11-23T23:21:10.706Z,8.50
2022-11-23T23:24:00.978Z,8.50
2022-11-23T23:26:48.815Z,8.50
2022-11-23T23:29:35.549Z,8.40
2022-11-23T23:32:21.963Z,8.50
2022-11-23T23:35:09.247Z,8.40
2022-11-23T23:37:55.714Z,8.40
2022-11-23T23:40:42.179Z,8.40
2022-11-23T23:43:30.811Z,8.40
2022-11-23T23:46:17.889Z,8.40
2022-11-23T23:49:04.738Z,8.40
2022-11-23T23:51:51.822Z,8.30
2022-11-23T23:54:38.691Z,8.40
2022-11-23T23:57:25.129Z,8.30
